sensor_id;sensor_type;location;lat;lon;timestamp;P1;durP1;ratioP1;P2;durP2;ratioP2
74495;SDS011;62979;55.720;37.606;2023-07-28T00:02:08;20.25;;;15.50;;
74495;SDS011;62979;55.720;37.606;2023-07-28T00:04:35;20.98;;;16.40;;
74495;SDS011;62979;55.720;37.606;2023-07-28T00:07:02;27.30;;;15.80;;
74495;SDS011;62979;55.720;37.606;2023-07-28T00:09:30;21.20;;;13.52;;
74495;SDS011;62979;55.720;37.606;2023-07-28T00:11:58;21.52;;;14.05;;
74495;SDS011;62979;55.720;37.606;2023-07-28T00:14:26;21.40;;;15.13;;
74495;SDS011;62979;55.720;37.606;2023-07-28T00:16:55;21.77;;;16.13;;
74495;SDS011;62979;55.720;37.606;2023-07-28T00:19:23;21.38;;;16.17;;
74495;SDS011;62979;55.720;37.606;2023-07-28T00:21:50;23.80;;;17.50;;
74495;SDS011;62979;55.720;37.606;2023-07-28T00:24:18;23.73;;;17.00;;
74495;SDS011;62979;55.720;37.606;2023-07-28T00:26:45;24.10;;;17.45;;
74495;SDS011;62979;55.720;37.606;2023-07-28T00:29:12;21.17;;;16.33;;
74495;SDS011;62979;55.720;37.606;2023-07-28T00:31:39;23.95;;;16.92;;
74495;SDS011;62979;55.720;37.606;2023-07-28T00:34:07;23.92;;;17.40;;
74495;SDS011;62979;55.720;37.606;2023-07-28T00:36:34;22.52;;;17.30;;
74495;SDS011;62979;55.720;37.606;2023-07-28T00:39:01;23.55;;;16.95;;
74495;SDS011;62979;55.720;37.606;2023-07-28T00:41:28;18.88;;;15.35;;
74495;SDS011;62979;55.720;37.606;2023-07-28T00:43:55;20.08;;;15.77;;
74495;SDS011;62979;55.720;37.606;2023-07-28T00:46:21;21.83;;;15.02;;
74495;SDS011;62979;55.720;37.606;2023-07-28T00:48:48;16.60;;;13.35;;
74495;SDS011;62979;55.720;37.606;2023-07-28T00:51:17;17.20;;;15.48;;
74495;SDS011;62979;55.720;37.606;2023-07-28T00:53:44;15.85;;;14.15;;
74495;SDS011;62979;55.720;37.606;2023-07-28T00:56:11;18.38;;;13.95;;
74495;SDS011;62979;55.720;37.606;2023-07-28T00:58:40;15.85;;;13.55;;
74495;SDS011;62979;55.720;37.606;2023-07-28T01:01:07;16.10;;;14.38;;
74495;SDS011;62979;55.720;37.606;2023-07-28T01:03:33;17.98;;;15.63;;
74495;SDS011;62979;55.720;37.606;2023-07-28T01:06:04;17.95;;;12.48;;
74495;SDS011;62979;55.720;37.606;2023-07-28T01:08:48;16.70;;;15.00;;
74495;SDS011;62979;55.720;37.606;2023-07-28T01:11:23;15.48;;;12.32;;
74495;SDS011;62979;55.720;37.606;2023-07-28T01:13:50;14.65;;;11.05;;
74495;SDS011;62979;55.720;37.606;2023-07-28T01:16:17;15.20;;;11.55;;
74495;SDS011;62979;55.720;37.606;2023-07-28T01:18:44;15.20;;;13.00;;
74495;SDS011;62979;55.720;37.606;2023-07-28T01:21:13;16.50;;;11.68;;
74495;SDS011;62979;55.720;37.606;2023-07-28T01:23:51;14.63;;;12.27;;
74495;SDS011;62979;55.720;37.606;2023-07-28T01:26:33;15.80;;;13.20;;
74495;SDS011;62979;55.720;37.606;2023-07-28T01:29:01;14.93;;;12.80;;
74495;SDS011;62979;55.720;37.606;2023-07-28T01:31:30;13.48;;;11.98;;
74495;SDS011;62979;55.720;37.606;2023-07-28T01:33:57;16.02;;;10.23;;
74495;SDS011;62979;55.720;37.606;2023-07-28T01:36:24;15.02;;;13.43;;
74495;SDS011;62979;55.720;37.606;2023-07-28T01:38:51;16.60;;;12.50;;
74495;SDS011;62979;55.720;37.606;2023-07-28T01:41:19;14.13;;;12.63;;
74495;SDS011;62979;55.720;37.606;2023-07-28T01:43:47;13.82;;;10.73;;
74495;SDS011;62979;55.720;37.606;2023-07-28T01:46:14;16.50;;;14.65;;
74495;SDS011;62979;55.720;37.606;2023-07-28T01:48:41;13.63;;;12.15;;
74495;SDS011;62979;55.720;37.606;2023-07-28T01:51:07;14.63;;;12.52;;
74495;SDS011;62979;55.720;37.606;2023-07-28T01:53:35;14.85;;;13.25;;
74495;SDS011;62979;55.720;37.606;2023-07-28T01:56:01;16.00;;;13.68;;
74495;SDS011;62979;55.720;37.606;2023-07-28T01:58:29;14.32;;;12.15;;
74495;SDS011;62979;55.720;37.606;2023-07-28T02:00:57;15.82;;;14.30;;
74495;SDS011;62979;55.720;37.606;2023-07-28T02:03:24;16.50;;;12.70;;
74495;SDS011;62979;55.720;37.606;2023-07-28T02:05:51;16.88;;;13.45;;
74495;SDS011;62979;55.720;37.606;2023-07-28T02:08:18;12.15;;;10.40;;
74495;SDS011;62979;55.720;37.606;2023-07-28T02:10:45;16.08;;;12.50;;
74495;SDS011;62979;55.720;37.606;2023-07-28T02:13:12;16.83;;;12.18;;
74495;SDS011;62979;55.720;37.606;2023-07-28T02:15:39;17.55;;;13.50;;
74495;SDS011;62979;55.720;37.606;2023-07-28T02:18:07;14.77;;;12.60;;
74495;SDS011;62979;55.720;37.606;2023-07-28T02:20:34;18.88;;;13.95;;
74495;SDS011;62979;55.720;37.606;2023-07-28T02:23:02;15.05;;;13.52;;
74495;SDS011;62979;55.720;37.606;2023-07-28T02:25:29;15.60;;;13.85;;
74495;SDS011;62979;55.720;37.606;2023-07-28T02:27:56;16.67;;;14.30;;
74495;SDS011;62979;55.720;37.606;2023-07-28T02:30:23;19.75;;;15.00;;
74495;SDS011;62979;55.720;37.606;2023-07-28T02:32:50;16.42;;;12.18;;
74495;SDS011;62979;55.720;37.606;2023-07-28T02:35:19;15.90;;;10.63;;
74495;SDS011;62979;55.720;37.606;2023-07-28T02:37:45;16.02;;;13.02;;
74495;SDS011;62979;55.720;37.606;2023-07-28T02:40:13;17.65;;;14.07;;
74495;SDS011;62979;55.720;37.606;2023-07-28T02:42:40;16.55;;;13.43;;
74495;SDS011;62979;55.720;37.606;2023-07-28T02:45:07;15.77;;;14.18;;
74495;SDS011;62979;55.720;37.606;2023-07-28T02:47:35;16.17;;;14.48;;
74495;SDS011;62979;55.720;37.606;2023-07-28T02:50:02;19.25;;;14.23;;
74495;SDS011;62979;55.720;37.606;2023-07-28T02:52:32;16.80;;;14.90;;
74495;SDS011;62979;55.720;37.606;2023-07-28T02:54:58;14.63;;;12.25;;
74495;SDS011;62979;55.720;37.606;2023-07-28T02:57:25;13.50;;;12.15;;
74495;SDS011;62979;55.720;37.606;2023-07-28T02:59:52;16.10;;;13.65;;
74495;SDS011;62979;55.720;37.606;2023-07-28T03:02:19;16.45;;;14.43;;
74495;SDS011;62979;55.720;37.606;2023-07-28T03:04:46;14.43;;;13.02;;
74495;SDS011;62979;55.720;37.606;2023-07-28T03:07:13;14.70;;;13.00;;
74495;SDS011;62979;55.720;37.606;2023-07-28T03:09:41;24.88;;;14.32;;
74495;SDS011;62979;55.720;37.606;2023-07-28T03:12:08;16.50;;;11.40;;
74495;SDS011;62979;55.720;37.606;2023-07-28T03:14:35;16.95;;;13.00;;
74495;SDS011;62979;55.720;37.606;2023-07-28T03:17:02;15.32;;;13.10;;
74495;SDS011;62979;55.720;37.606;2023-07-28T03:19:29;16.08;;;13.48;;
74495;SDS011;62979;55.720;37.606;2023-07-28T03:21:56;15.10;;;13.02;;
74495;SDS011;62979;55.720;37.606;2023-07-28T03:24:23;17.40;;;13.27;;
74495;SDS011;62979;55.720;37.606;2023-07-28T03:26:52;17.08;;;9.82;;
74495;SDS011;62979;55.720;37.606;2023-07-28T03:29:18;13.38;;;11.63;;
74495;SDS011;62979;55.720;37.606;2023-07-28T03:31:45;11.55;;;9.63;;
74495;SDS011;62979;55.720;37.606;2023-07-28T03:34:12;12.55;;;9.90;;
74495;SDS011;62979;55.720;37.606;2023-07-28T03:36:39;14.27;;;12.88;;
74495;SDS011;62979;55.720;37.606;2023-07-28T03:39:06;15.32;;;12.60;;
74495;SDS011;62979;55.720;37.606;2023-07-28T03:41:33;18.10;;;11.40;;
74495;SDS011;62979;55.720;37.606;2023-07-28T03:44:01;16.42;;;13.18;;
74495;SDS011;62979;55.720;37.606;2023-07-28T03:46:28;19.45;;;14.50;;
74495;SDS011;62979;55.720;37.606;2023-07-28T03:48:55;20.85;;;15.77;;
74495;SDS011;62979;55.720;37.606;2023-07-28T03:51:23;17.35;;;15.55;;
74495;SDS011;62979;55.720;37.606;2023-07-28T03:53:50;20.45;;;16.60;;
74495;SDS011;62979;55.720;37.606;2023-07-28T03:56:17;25.27;;;18.05;;
74495;SDS011;62979;55.720;37.606;2023-07-28T03:58:44;23.02;;;18.08;;
74495;SDS011;62979;55.720;37.606;2023-07-28T04:01:13;25.65;;;17.73;;
74495;SDS011;62979;55.720;37.606;2023-07-28T04:03:40;23.42;;;16.08;;
74495;SDS011;62979;55.720;37.606;2023-07-28T04:06:09;18.52;;;15.27;;
74495;SDS011;62979;55.720;37.606;2023-07-28T04:08:37;22.50;;;15.50;;
74495;SDS011;62979;55.720;37.606;2023-07-28T04:11:04;23.30;;;16.50;;
74495;SDS011;62979;55.720;37.606;2023-07-28T04:13:31;21.85;;;16.52;;
74495;SDS011;62979;55.720;37.606;2023-07-28T04:15:58;18.35;;;13.93;;
74495;SDS011;62979;55.720;37.606;2023-07-28T04:18:26;19.70;;;14.90;;
74495;SDS011;62979;55.720;37.606;2023-07-28T04:20:53;17.48;;;14.40;;
74495;SDS011;62979;55.720;37.606;2023-07-28T04:23:20;17.90;;;13.95;;
74495;SDS011;62979;55.720;37.606;2023-07-28T04:25:46;20.33;;;14.77;;
74495;SDS011;62979;55.720;37.606;2023-07-28T04:28:13;18.17;;;14.52;;
74495;SDS011;62979;55.720;37.606;2023-07-28T04:30:40;14.65;;;13.13;;
74495;SDS011;62979;55.720;37.606;2023-07-28T04:33:07;16.85;;;13.30;;
74495;SDS011;62979;55.720;37.606;2023-07-28T04:35:35;16.98;;;13.32;;
74495;SDS011;62979;55.720;37.606;2023-07-28T04:38:02;15.35;;;13.60;;
74495;SDS011;62979;55.720;37.606;2023-07-28T04:40:29;17.33;;;12.95;;
74495;SDS011;62979;55.720;37.606;2023-07-28T04:42:56;16.98;;;14.23;;
74495;SDS011;62979;55.720;37.606;2023-07-28T04:45:23;15.70;;;13.05;;
74495;SDS011;62979;55.720;37.606;2023-07-28T04:47:50;17.52;;;14.75;;
74495;SDS011;62979;55.720;37.606;2023-07-28T04:50:18;19.92;;;14.68;;
74495;SDS011;62979;55.720;37.606;2023-07-28T04:52:46;16.60;;;14.75;;
74495;SDS011;62979;55.720;37.606;2023-07-28T04:55:13;19.02;;;15.15;;
74495;SDS011;62979;55.720;37.606;2023-07-28T04:57:40;15.88;;;14.07;;
74495;SDS011;62979;55.720;37.606;2023-07-28T05:00:07;17.92;;;15.68;;
74495;SDS011;62979;55.720;37.606;2023-07-28T05:02:35;20.00;;;13.20;;
74495;SDS011;62979;55.720;37.606;2023-07-28T05:05:02;18.65;;;15.73;;
74495;SDS011;62979;55.720;37.606;2023-07-28T05:09:58;19.13;;;15.45;;
74495;SDS011;62979;55.720;37.606;2023-07-28T05:12:24;17.85;;;15.88;;
74495;SDS011;62979;55.720;37.606;2023-07-28T05:14:52;19.83;;;15.27;;
74495;SDS011;62979;55.720;37.606;2023-07-28T05:17:19;20.13;;;15.07;;
74495;SDS011;62979;55.720;37.606;2023-07-28T05:19:45;19.90;;;14.55;;
74495;SDS011;62979;55.720;37.606;2023-07-28T05:22:12;18.85;;;15.07;;
74495;SDS011;62979;55.720;37.606;2023-07-28T05:24:39;17.10;;;14.88;;
74495;SDS011;62979;55.720;37.606;2023-07-28T05:27:07;19.38;;;14.63;;
74495;SDS011;62979;55.720;37.606;2023-07-28T05:29:34;17.63;;;13.88;;
74495;SDS011;62979;55.720;37.606;2023-07-28T05:32:01;20.42;;;16.02;;
74495;SDS011;62979;55.720;37.606;2023-07-28T05:34:29;17.83;;;14.13;;
74495;SDS011;62979;55.720;37.606;2023-07-28T05:39:23;21.30;;;14.50;;
74495;SDS011;62979;55.720;37.606;2023-07-28T05:41:50;17.55;;;14.27;;
74495;SDS011;62979;55.720;37.606;2023-07-28T05:44:18;17.25;;;14.07;;
74495;SDS011;62979;55.720;37.606;2023-07-28T05:46:45;14.30;;;12.40;;
74495;SDS011;62979;55.720;37.606;2023-07-28T05:49:13;16.10;;;12.02;;
74495;SDS011;62979;55.720;37.606;2023-07-28T05:51:40;12.02;;;10.10;;
74495;SDS011;62979;55.720;37.606;2023-07-28T05:54:07;16.42;;;12.88;;
74495;SDS011;62979;55.720;37.606;2023-07-28T05:56:34;10.88;;;8.35;;
74495;SDS011;62979;55.720;37.606;2023-07-28T05:59:01;15.05;;;10.55;;
74495;SDS011;62979;55.720;37.606;2023-07-28T06:01:29;11.40;;;9.15;;
74495;SDS011;62979;55.720;37.606;2023-07-28T06:03:56;13.60;;;9.70;;
74495;SDS011;62979;55.720;37.606;2023-07-28T06:08:50;11.70;;;10.50;;
74495;SDS011;62979;55.720;37.606;2023-07-28T06:11:17;14.73;;;11.23;;
74495;SDS011;62979;55.720;37.606;2023-07-28T06:13:45;10.98;;;9.35;;
74495;SDS011;62979;55.720;37.606;2023-07-28T06:16:12;14.13;;;9.82;;
74495;SDS011;62979;55.720;37.606;2023-07-28T06:18:40;13.13;;;9.52;;
74495;SDS011;62979;55.720;37.606;2023-07-28T06:21:08;11.40;;;9.02;;
74495;SDS011;62979;55.720;37.606;2023-07-28T06:23:35;8.60;;;7.13;;
74495;SDS011;62979;55.720;37.606;2023-07-28T06:26:01;11.90;;;8.88;;
74495;SDS011;62979;55.720;37.606;2023-07-28T06:28:28;10.05;;;8.25;;
74495;SDS011;62979;55.720;37.606;2023-07-28T06:30:55;10.93;;;7.63;;
74495;SDS011;62979;55.720;37.606;2023-07-28T06:33:24;13.23;;;7.65;;
74495;SDS011;62979;55.720;37.606;2023-07-28T06:35:53;15.18;;;9.75;;
74495;SDS011;62979;55.720;37.606;2023-07-28T06:38:20;13.20;;;6.65;;
74495;SDS011;62979;55.720;37.606;2023-07-28T06:40:47;12.23;;;9.38;;
74495;SDS011;62979;55.720;37.606;2023-07-28T06:43:14;13.73;;;7.65;;
74495;SDS011;62979;55.720;37.606;2023-07-28T06:45:43;12.20;;;5.65;;
74495;SDS011;62979;55.720;37.606;2023-07-28T06:48:10;7.78;;;6.05;;
74495;SDS011;62979;55.720;37.606;2023-07-28T06:50:37;7.18;;;4.80;;
74495;SDS011;62979;55.720;37.606;2023-07-28T06:53:05;8.00;;;5.45;;
74495;SDS011;62979;55.720;37.606;2023-07-28T06:55:32;12.25;;;8.52;;
74495;SDS011;62979;55.720;37.606;2023-07-28T06:57:59;11.27;;;7.65;;
74495;SDS011;62979;55.720;37.606;2023-07-28T07:00:25;13.65;;;7.72;;
74495;SDS011;62979;55.720;37.606;2023-07-28T07:02:52;9.13;;;7.45;;
74495;SDS011;62979;55.720;37.606;2023-07-28T07:05:19;10.07;;;8.30;;
74495;SDS011;62979;55.720;37.606;2023-07-28T07:07:46;11.90;;;6.28;;
74495;SDS011;62979;55.720;37.606;2023-07-28T07:10:14;11.73;;;8.10;;
74495;SDS011;62979;55.720;37.606;2023-07-28T07:12:41;9.43;;;6.00;;
74495;SDS011;62979;55.720;37.606;2023-07-28T07:15:08;10.40;;;7.85;;
74495;SDS011;62979;55.720;37.606;2023-07-28T07:17:36;10.20;;;8.18;;
74495;SDS011;62979;55.720;37.606;2023-07-28T07:20:05;12.35;;;8.23;;
74495;SDS011;62979;55.720;37.606;2023-07-28T07:22:35;9.77;;;7.50;;
74495;SDS011;62979;55.720;37.606;2023-07-28T07:25:02;8.95;;;7.45;;
74495;SDS011;62979;55.720;37.606;2023-07-28T07:27:33;12.73;;;7.93;;
74495;SDS011;62979;55.720;37.606;2023-07-28T07:30:00;13.13;;;8.85;;
74495;SDS011;62979;55.720;37.606;2023-07-28T07:32:27;9.75;;;7.35;;
74495;SDS011;62979;55.720;37.606;2023-07-28T07:34:54;10.73;;;7.35;;
74495;SDS011;62979;55.720;37.606;2023-07-28T07:37:20;11.15;;;7.70;;
74495;SDS011;62979;55.720;37.606;2023-07-28T07:39:47;13.40;;;8.38;;
74495;SDS011;62979;55.720;37.606;2023-07-28T07:42:15;10.40;;;8.65;;
74495;SDS011;62979;55.720;37.606;2023-07-28T07:44:43;11.55;;;7.72;;
74495;SDS011;62979;55.720;37.606;2023-07-28T07:47:13;14.80;;;7.68;;
74495;SDS011;62979;55.720;37.606;2023-07-28T07:49:41;10.05;;;7.82;;
74495;SDS011;62979;55.720;37.606;2023-07-28T07:52:09;12.13;;;9.50;;
74495;SDS011;62979;55.720;37.606;2023-07-28T07:54:36;11.43;;;8.48;;
74495;SDS011;62979;55.720;37.606;2023-07-28T07:57:04;14.32;;;9.32;;
74495;SDS011;62979;55.720;37.606;2023-07-28T07:59:32;12.18;;;8.95;;
74495;SDS011;62979;55.720;37.606;2023-07-28T08:02:01;14.55;;;8.95;;
74495;SDS011;62979;55.720;37.606;2023-07-28T08:04:28;12.75;;;8.27;;
74495;SDS011;62979;55.720;37.606;2023-07-28T08:06:56;12.15;;;8.93;;
74495;SDS011;62979;55.720;37.606;2023-07-28T08:09:23;11.73;;;7.30;;
74495;SDS011;62979;55.720;37.606;2023-07-28T08:11:50;10.18;;;6.78;;
74495;SDS011;62979;55.720;37.606;2023-07-28T08:14:18;9.10;;;8.15;;
74495;SDS011;62979;55.720;37.606;2023-07-28T08:16:44;12.25;;;8.35;;
74495;SDS011;62979;55.720;37.606;2023-07-28T08:19:13;10.48;;;8.18;;
74495;SDS011;62979;55.720;37.606;2023-07-28T08:21:40;12.52;;;8.38;;
74495;SDS011;62979;55.720;37.606;2023-07-28T08:24:07;10.57;;;8.07;;
74495;SDS011;62979;55.720;37.606;2023-07-28T08:26:34;10.60;;;6.55;;
74495;SDS011;62979;55.720;37.606;2023-07-28T08:29:01;8.98;;;7.85;;
74495;SDS011;62979;55.720;37.606;2023-07-28T08:31:28;9.65;;;7.50;;
74495;SDS011;62979;55.720;37.606;2023-07-28T08:33:55;8.25;;;7.25;;
74495;SDS011;62979;55.720;37.606;2023-07-28T08:36:23;7.90;;;6.40;;
74495;SDS011;62979;55.720;37.606;2023-07-28T08:38:50;8.43;;;7.53;;
74495;SDS011;62979;55.720;37.606;2023-07-28T08:41:17;7.32;;;6.22;;
74495;SDS011;62979;55.720;37.606;2023-07-28T08:43:44;9.18;;;6.20;;
74495;SDS011;62979;55.720;37.606;2023-07-28T08:46:11;8.05;;;6.82;;
74495;SDS011;62979;55.720;37.606;2023-07-28T08:48:38;8.32;;;5.07;;
74495;SDS011;62979;55.720;37.606;2023-07-28T08:51:05;6.88;;;6.18;;
74495;SDS011;62979;55.720;37.606;2023-07-28T08:53:34;5.40;;;4.30;;
74495;SDS011;62979;55.720;37.606;2023-07-28T08:56:02;7.50;;;6.25;;
74495;SDS011;62979;55.720;37.606;2023-07-28T08:58:29;6.88;;;6.28;;
74495;SDS011;62979;55.720;37.606;2023-07-28T09:00:56;6.47;;;5.80;;
74495;SDS011;62979;55.720;37.606;2023-07-28T09:03:25;9.02;;;7.47;;
74495;SDS011;62979;55.720;37.606;2023-07-28T09:08:25;9.25;;;6.75;;
74495;SDS011;62979;55.720;37.606;2023-07-28T09:10:53;7.25;;;6.28;;
74495;SDS011;62979;55.720;37.606;2023-07-28T09:13:20;7.82;;;6.65;;
74495;SDS011;62979;55.720;37.606;2023-07-28T09:15:47;7.90;;;5.50;;
74495;SDS011;62979;55.720;37.606;2023-07-28T09:18:15;7.55;;;6.85;;
74495;SDS011;62979;55.720;37.606;2023-07-28T09:20:43;7.28;;;5.80;;
74495;SDS011;62979;55.720;37.606;2023-07-28T09:23:10;6.32;;;5.68;;
74495;SDS011;62979;55.720;37.606;2023-07-28T09:25:41;7.25;;;6.55;;
74495;SDS011;62979;55.720;37.606;2023-07-28T09:28:10;7.47;;;5.45;;
74495;SDS011;62979;55.720;37.606;2023-07-28T09:30:44;6.95;;;5.40;;
74495;SDS011;62979;55.720;37.606;2023-07-28T09:33:14;8.35;;;7.30;;
74495;SDS011;62979;55.720;37.606;2023-07-28T09:35:56;7.53;;;6.25;;
74495;SDS011;62979;55.720;37.606;2023-07-28T09:38:24;9.85;;;7.15;;
74495;SDS011;62979;55.720;37.606;2023-07-28T09:40:54;7.53;;;6.80;;
74495;SDS011;62979;55.720;37.606;2023-07-28T09:43:26;7.10;;;5.70;;
74495;SDS011;62979;55.720;37.606;2023-07-28T09:45:55;7.65;;;6.90;;
74495;SDS011;62979;55.720;37.606;2023-07-28T09:48:23;8.30;;;7.40;;
74495;SDS011;62979;55.720;37.606;2023-07-28T09:50:55;11.13;;;9.32;;
74495;SDS011;62979;55.720;37.606;2023-07-28T09:53:26;16.00;;;14.43;;
74495;SDS011;62979;55.720;37.606;2023-07-28T09:55:55;8.73;;;7.78;;
74495;SDS011;62979;55.720;37.606;2023-07-28T09:58:26;7.80;;;6.88;;
74495;SDS011;62979;55.720;37.606;2023-07-28T10:00:56;7.70;;;6.90;;
74495;SDS011;62979;55.720;37.606;2023-07-28T10:03:24;11.13;;;6.68;;
74495;SDS011;62979;55.720;37.606;2023-07-28T10:05:52;7.57;;;6.88;;
74495;SDS011;62979;55.720;37.606;2023-07-28T10:08:19;21.15;;;19.08;;
74495;SDS011;62979;55.720;37.606;2023-07-28T10:10:46;10.73;;;9.63;;
74495;SDS011;62979;55.720;37.606;2023-07-28T10:13:19;7.82;;;7.10;;
74495;SDS011;62979;55.720;37.606;2023-07-28T10:15:48;9.82;;;8.82;;
74495;SDS011;62979;55.720;37.606;2023-07-28T10:18:16;8.70;;;7.90;;
74495;SDS011;62979;55.720;37.606;2023-07-28T10:20:47;8.77;;;7.93;;
74495;SDS011;62979;55.720;37.606;2023-07-28T10:25:43;8.90;;;8.00;;
74495;SDS011;62979;55.720;37.606;2023-07-28T10:28:27;9.98;;;8.82;;
74495;SDS011;62979;55.720;37.606;2023-07-28T10:30:58;9.35;;;8.35;;
74495;SDS011;62979;55.720;37.606;2023-07-28T10:33:28;11.60;;;9.25;;
74495;SDS011;62979;55.720;37.606;2023-07-28T10:35:57;40.83;;;33.72;;
74495;SDS011;62979;55.720;37.606;2023-07-28T10:38:29;14.98;;;13.07;;
74495;SDS011;62979;55.720;37.606;2023-07-28T10:41:05;10.30;;;9.23;;
74495;SDS011;62979;55.720;37.606;2023-07-28T10:43:41;12.73;;;8.90;;
74495;SDS011;62979;55.720;37.606;2023-07-28T10:46:11;11.00;;;9.80;;
74495;SDS011;62979;55.720;37.606;2023-07-28T10:48:42;10.05;;;8.32;;
74495;SDS011;62979;55.720;37.606;2023-07-28T10:51:11;9.13;;;7.88;;
74495;SDS011;62979;55.720;37.606;2023-07-28T10:53:38;10.90;;;9.57;;
74495;SDS011;62979;55.720;37.606;2023-07-28T10:56:05;9.98;;;8.98;;
74495;SDS011;62979;55.720;37.606;2023-07-28T10:58:35;11.48;;;9.55;;
74495;SDS011;62979;55.720;37.606;2023-07-28T11:01:02;11.45;;;10.18;;
74495;SDS011;62979;55.720;37.606;2023-07-28T11:03:31;11.15;;;10.07;;
74495;SDS011;62979;55.720;37.606;2023-07-28T11:05:58;10.40;;;9.40;;
74495;SDS011;62979;55.720;37.606;2023-07-28T11:08:26;12.95;;;10.43;;
74495;SDS011;62979;55.720;37.606;2023-07-28T11:10:53;11.63;;;10.40;;
74495;SDS011;62979;55.720;37.606;2023-07-28T11:13:20;14.32;;;11.32;;
74495;SDS011;62979;55.720;37.606;2023-07-28T11:15:50;10.55;;;9.45;;
74495;SDS011;62979;55.720;37.606;2023-07-28T11:18:18;9.88;;;8.82;;
74495;SDS011;62979;55.720;37.606;2023-07-28T11:20:47;13.27;;;10.40;;
74495;SDS011;62979;55.720;37.606;2023-07-28T11:23:14;10.35;;;9.25;;
74495;SDS011;62979;55.720;37.606;2023-07-28T11:25:43;14.80;;;10.65;;
74495;SDS011;62979;55.720;37.606;2023-07-28T11:28:12;12.45;;;11.00;;
74495;SDS011;62979;55.720;37.606;2023-07-28T11:30:39;13.02;;;11.73;;
74495;SDS011;62979;55.720;37.606;2023-07-28T11:33:08;11.90;;;10.52;;
74495;SDS011;62979;55.720;37.606;2023-07-28T11:35:37;13.35;;;11.25;;
74495;SDS011;62979;55.720;37.606;2023-07-28T11:38:07;13.95;;;11.35;;
74495;SDS011;62979;55.720;37.606;2023-07-28T11:40:35;12.85;;;10.55;;
74495;SDS011;62979;55.720;37.606;2023-07-28T11:43:03;10.98;;;9.88;;
74495;SDS011;62979;55.720;37.606;2023-07-28T11:45:31;13.80;;;8.48;;
74495;SDS011;62979;55.720;37.606;2023-07-28T11:47:59;10.90;;;9.52;;
74495;SDS011;62979;55.720;37.606;2023-07-28T11:50:28;11.00;;;9.85;;
74495;SDS011;62979;55.720;37.606;2023-07-28T11:53:00;10.10;;;8.32;;
74495;SDS011;62979;55.720;37.606;2023-07-28T11:55:29;9.93;;;8.73;;
74495;SDS011;62979;55.720;37.606;2023-07-28T11:57:56;11.40;;;10.05;;
74495;SDS011;62979;55.720;37.606;2023-07-28T12:00:29;9.68;;;8.70;;
74495;SDS011;62979;55.720;37.606;2023-07-28T12:03:06;9.38;;;8.15;;
74495;SDS011;62979;55.720;37.606;2023-07-28T12:05:35;9.25;;;8.40;;
74495;SDS011;62979;55.720;37.606;2023-07-28T12:08:06;9.70;;;8.10;;
74495;SDS011;62979;55.720;37.606;2023-07-28T12:10:35;9.70;;;8.73;;
74495;SDS011;62979;55.720;37.606;2023-07-28T12:13:06;8.35;;;7.45;;
74495;SDS011;62979;55.720;37.606;2023-07-28T12:15:40;9.30;;;8.40;;
74495;SDS011;62979;55.720;37.606;2023-07-28T12:20:37;10.48;;;9.45;;
74495;SDS011;62979;55.720;37.606;2023-07-28T12:23:06;9.07;;;8.18;;
74495;SDS011;62979;55.720;37.606;2023-07-28T12:25:36;9.77;;;8.77;;
74495;SDS011;62979;55.720;37.606;2023-07-28T12:28:03;10.23;;;9.27;;
74495;SDS011;62979;55.720;37.606;2023-07-28T12:30:31;10.55;;;9.45;;
74495;SDS011;62979;55.720;37.606;2023-07-28T12:33:01;9.32;;;7.35;;
74495;SDS011;62979;55.720;37.606;2023-07-28T12:35:28;11.32;;;7.60;;
74495;SDS011;62979;55.720;37.606;2023-07-28T12:37:57;6.88;;;5.28;;
74495;SDS011;62979;55.720;37.606;2023-07-28T12:40:26;8.98;;;6.47;;
74495;SDS011;62979;55.720;37.606;2023-07-28T12:42:56;6.50;;;5.00;;
74495;SDS011;62979;55.720;37.606;2023-07-28T12:45:23;4.85;;;2.85;;
74495;SDS011;62979;55.720;37.606;2023-07-28T12:50:19;4.10;;;3.70;;
74495;SDS011;62979;55.720;37.606;2023-07-28T12:55:13;6.05;;;4.20;;
74495;SDS011;62979;55.720;37.606;2023-07-28T13:00:09;4.97;;;4.50;;
74495;SDS011;62979;55.720;37.606;2023-07-28T13:02:39;5.75;;;3.38;;
74495;SDS011;62979;55.720;37.606;2023-07-28T13:05:07;4.57;;;3.85;;
74495;SDS011;62979;55.720;37.606;2023-07-28T13:07:37;5.28;;;3.80;;
74495;SDS011;62979;55.720;37.606;2023-07-28T13:10:06;5.00;;;3.33;;
74495;SDS011;62979;55.720;37.606;2023-07-28T13:12:36;3.85;;;3.28;;
74495;SDS011;62979;55.720;37.606;2023-07-28T13:15:03;7.60;;;4.07;;
74495;SDS011;62979;55.720;37.606;2023-07-28T13:17:33;5.95;;;3.85;;
74495;SDS011;62979;55.720;37.606;2023-07-28T13:20:00;5.47;;;4.18;;
74495;SDS011;62979;55.720;37.606;2023-07-28T13:22:27;4.80;;;4.35;;
74495;SDS011;62979;55.720;37.606;2023-07-28T13:24:54;4.03;;;3.60;;
74495;SDS011;62979;55.720;37.606;2023-07-28T13:27:21;6.63;;;4.07;;
74495;SDS011;62979;55.720;37.606;2023-07-28T13:29:48;4.60;;;4.05;;
74495;SDS011;62979;55.720;37.606;2023-07-28T13:32:15;5.00;;;4.50;;
74495;SDS011;62979;55.720;37.606;2023-07-28T13:34:45;7.43;;;4.82;;
74495;SDS011;62979;55.720;37.606;2023-07-28T13:37:12;10.52;;;5.28;;
74495;SDS011;62979;55.720;37.606;2023-07-28T13:39:39;9.25;;;4.28;;
74495;SDS011;62979;55.720;37.606;2023-07-28T13:42:07;6.07;;;4.20;;
74495;SDS011;62979;55.720;37.606;2023-07-28T13:44:35;18.67;;;4.00;;
74495;SDS011;62979;55.720;37.606;2023-07-28T13:47:03;9.85;;;5.22;;
74495;SDS011;62979;55.720;37.606;2023-07-28T13:49:30;10.27;;;4.22;;
74495;SDS011;62979;55.720;37.606;2023-07-28T13:52:02;8.10;;;3.60;;
74495;SDS011;62979;55.720;37.606;2023-07-28T13:54:29;2.72;;;1.52;;
74495;SDS011;62979;55.720;37.606;2023-07-28T13:56:56;6.47;;;3.55;;
74495;SDS011;62979;55.720;37.606;2023-07-28T13:59:23;7.55;;;3.47;;
74495;SDS011;62979;55.720;37.606;2023-07-28T14:01:50;3.83;;;2.67;;
74495;SDS011;62979;55.720;37.606;2023-07-28T14:04:17;3.22;;;2.92;;
74495;SDS011;62979;55.720;37.606;2023-07-28T14:06:44;4.05;;;3.22;;
74495;SDS011;62979;55.720;37.606;2023-07-28T14:09:12;4.60;;;3.10;;
74495;SDS011;62979;55.720;37.606;2023-07-28T14:11:39;5.97;;;3.22;;
74495;SDS011;62979;55.720;37.606;2023-07-28T14:14:06;3.67;;;3.38;;
74495;SDS011;62979;55.720;37.606;2023-07-28T14:16:33;3.17;;;1.88;;
74495;SDS011;62979;55.720;37.606;2023-07-28T14:19:00;5.85;;;2.50;;
74495;SDS011;62979;55.720;37.606;2023-07-28T14:21:27;2.45;;;2.25;;
74495;SDS011;62979;55.720;37.606;2023-07-28T14:23:54;4.93;;;3.22;;
74495;SDS011;62979;55.720;37.606;2023-07-28T14:26:22;3.00;;;2.70;;
74495;SDS011;62979;55.720;37.606;2023-07-28T14:28:49;5.72;;;2.65;;
74495;SDS011;62979;55.720;37.606;2023-07-28T14:31:17;2.85;;;2.35;;
74495;SDS011;62979;55.720;37.606;2023-07-28T14:33:44;4.82;;;2.50;;
74495;SDS011;62979;55.720;37.606;2023-07-28T14:36:11;3.15;;;2.85;;
74495;SDS011;62979;55.720;37.606;2023-07-28T14:38:38;4.68;;;4.28;;
74495;SDS011;62979;55.720;37.606;2023-07-28T14:41:05;2.50;;;2.20;;
74495;SDS011;62979;55.720;37.606;2023-07-28T14:43:33;3.42;;;3.15;;
74495;SDS011;62979;55.720;37.606;2023-07-28T14:46:00;7.65;;;3.55;;
74495;SDS011;62979;55.720;37.606;2023-07-28T14:48:27;3.42;;;2.92;;